Time;durP1;ratioP1;P1;durP2;ratioP2;P2;SDS_P1;SDS_P2;PMS_P1;PMS_P2;Temp;Humidity;BMP_temperature;BMP_pressure;BME280_temperature;BME280_humidity;BME280_pressure;Samples;Min_cycle;Max_cycle;Signal;HPM_P1;HPM_P2
2022/12/12 00:01:27;;;;;;;24.70;13.30;;;;;;;;;;5037785;28;20446;-65
2022/12/12 00:03:55;;;;;;;21.23;12.40;;;;;;;;;;5037492;28;20493;-65
2022/12/12 00:06:23;;;;;;;25.87;13.30;;;;;;;;;;5037776;28;20564;-65
2022/12/12 00:08:52;;;;;;;22.77;11.10;;;;;;;;;;5037528;28;20518;-65
2022/12/12 00:11:20;;;;;;;28.97;14.13;;;;;;;;;;5037696;28;20442;-65
2022/12/12 00:13:48;;;;;;;28.07;13.83;;;;;;;;;;5037582;28;20466;-65
2022/12/12 00:16:18;;;;;;;29.40;13.37;;;;;;;;;;5036785;28;20458;-65
2022/12/12 00:18:46;;;;;;;31.07;15.03;;;;;;;;;;5024754;28;20485;-65
2022/12/12 00:21:15;;;;;;;27.83;13.60;;;;;;;;;;5037347;28;20864;-65
2022/12/12 00:23:44;;;;;;;25.63;12.50;;;;;;;;;;5037292;28;20466;-65
2022/12/12 00:26:15;;;;;;;28.53;13.63;;;;;;;;;;5037350;28;20492;-65
2022/12/12 00:28:43;;;;;;;25.03;12.73;;;;;;;;;;5037391;28;20449;-65
2022/12/12 00:31:11;;;;;;;27.67;14.30;;;;;;;;;;5037461;28;20473;-65
2022/12/12 00:33:42;;;;;;;27.23;14.20;;;;;;;;;;5037135;28;20985;-65
2022/12/12 00:36:10;;;;;;;22.43;13.27;;;;;;;;;;5037322;28;20502;-65
2022/12/12 00:38:38;;;;;;;25.27;12.70;;;;;;;;;;5037553;28;20442;-65
2022/12/12 00:41:06;;;;;;;23.20;12.67;;;;;;;;;;5037175;28;20470;-65
2022/12/12 00:43:34;;;;;;;31.83;14.07;;;;;;;;;;5037492;28;20470;-65
2022/12/12 00:46:02;;;;;;;28.43;12.93;;;;;;;;;;5036418;28;20569;-65
2022/12/12 00:48:31;;;;;;;22.73;11.47;;;;;;;;;;5037054;28;20454;-65
2022/12/12 00:51:05;;;;;;;28.40;12.73;;;;;;;;;;5037299;28;20446;-65
2022/12/12 00:53:33;;;;;;;21.80;10.47;;;;;;;;;;5037066;28;20541;-65
2022/12/12 00:56:04;;;;;;;22.63;12.40;;;;;;;;;;5037326;28;20521;-65
2022/12/12 00:58:32;;;;;;;30.20;14.37;;;;;;;;;;5037299;28;20451;-65
2022/12/12 01:01:05;;;;;;;22.70;11.77;;;;;;;;;;5037092;28;20965;-65
2022/12/12 01:03:33;;;;;;;23.30;12.87;;;;;;;;;;5036980;28;20473;-65
2022/12/12 01:06:03;;;;;;;22.73;12.07;;;;;;;;;;5040493;28;20481;-65
2022/12/12 01:08:31;;;;;;;27.33;12.10;;;;;;;;;;5041015;28;20442;-65
2022/12/12 01:10:59;;;;;;;24.80;12.17;;;;;;;;;;5040875;28;20448;-65
2022/12/12 01:13:27;;;;;;;22.73;12.23;;;;;;;;;;5040459;28;20845;-65
2022/12/12 01:15:55;;;;;;;21.83;10.83;;;;;;;;;;5039523;28;20949;-65
2022/12/12 01:18:23;;;;;;;25.40;12.17;;;;;;;;;;5039413;28;20508;-65
2022/12/12 01:20:51;;;;;;;24.40;12.33;;;;;;;;;;5040132;28;20803;-65
2022/12/12 01:23:21;;;;;;;24.07;13.07;;;;;;;;;;5040272;28;20477;-65
2022/12/12 01:25:49;;;;;;;23.13;12.63;;;;;;;;;;5040537;28;20482;-65
2022/12/12 01:28:17;;;;;;;18.17;9.73;;;;;;;;;;5040314;28;20803;-65
2022/12/12 01:30:45;;;;;;;25.30;12.23;;;;;;;;;;5040275;28;20537;-65
2022/12/12 01:33:13;;;;;;;22.57;12.00;;;;;;;;;;5040149;28;20476;-65
2022/12/12 01:35:41;;;;;;;25.37;11.57;;;;;;;;;;5040245;28;20533;-65
2022/12/12 01:38:09;;;;;;;24.93;11.87;;;;;;;;;;5040101;28;20529;-65
2022/12/12 01:40:38;;;;;;;20.57;11.90;;;;;;;;;;5039965;28;20767;-66
2022/12/12 01:43:09;;;;;;;19.23;10.83;;;;;;;;;;5040211;28;20479;-65
2022/12/12 01:46:16;;;;;;;19.97;9.93;;;;;;;;;;5039130;28;20485;-66
2022/12/12 01:48:45;;;;;;;22.17;10.63;;;;;;;;;;5039654;28;20832;-65
2022/12/12 01:51:15;;;;;;;23.87;10.90;;;;;;;;;;5040167;28;20454;-65
2022/12/12 01:53:44;;;;;;;24.03;11.23;;;;;;;;;;5039787;28;20472;-65
2022/12/12 01:56:15;;;;;;;21.60;10.13;;;;;;;;;;5039767;28;20870;-65
2022/12/12 01:58:44;;;;;;;17.67;9.47;;;;;;;;;;5040076;28;20530;-65
2022/12/12 02:01:12;;;;;;;21.10;10.53;;;;;;;;;;5039751;28;20995;-65
2022/12/12 02:03:41;;;;;;;18.70;10.60;;;;;;;;;;5039562;28;20473;-65
2022/12/12 02:06:11;;;;;;;21.67;10.00;;;;;;;;;;5039566;28;20517;-65
2022/12/12 02:08:39;;;;;;;17.97;9.10;;;;;;;;;;5040012;28;20510;-65
2022/12/12 02:11:07;;;;;;;19.87;10.73;;;;;;;;;;5039705;28;20452;-65
2022/12/12 02:13:37;;;;;;;20.77;9.83;;;;;;;;;;5039509;28;20458;-65
2022/12/12 02:16:08;;;;;;;18.57;10.10;;;;;;;;;;5037938;28;20537;-65
2022/12/12 02:18:40;;;;;;;19.17;10.67;;;;;;;;;;5039338;28;20529;-65
2022/12/12 02:21:14;;;;;;;17.37;9.70;;;;;;;;;;5039405;28;20495;-65
2022/12/12 02:23:57;;;;;;;19.77;10.03;;;;;;;;;;5039526;28;20462;-65
2022/12/12 02:26:44;;;;;;;20.17;10.57;;;;;;;;;;5039031;28;21011;-65
2022/12/12 02:29:24;;;;;;;19.60;10.53;;;;;;;;;;5039544;28;20442;-65
2022/12/12 02:31:57;;;;;;;18.73;10.77;;;;;;;;;;5038198;28;20481;-65
2022/12/12 02:34:26;;;;;;;23.07;12.20;;;;;;;;;;5038085;28;20999;-66
2022/12/12 02:37:00;;;;;;;21.67;10.40;;;;;;;;;;5039050;28;20950;-65
2022/12/12 02:39:33;;;;;;;16.37;9.60;;;;;;;;;;5037852;28;20565;-65
2022/12/12 02:42:04;;;;;;;19.80;10.97;;;;;;;;;;5038659;28;20556;-65
2022/12/12 02:44:34;;;;;;;24.70;11.37;;;;;;;;;;5038860;28;20962;-65
2022/12/12 02:47:07;;;;;;;19.83;11.37;;;;;;;;;;5038777;28;20524;-65
2022/12/12 02:49:37;;;;;;;19.97;10.43;;;;;;;;;;5038866;28;20454;-65
2022/12/12 02:52:06;;;;;;;18.90;11.30;;;;;;;;;;5039047;28;20521;-65
2022/12/12 02:54:34;;;;;;;19.40;10.60;;;;;;;;;;5038621;28;20521;-65
2022/12/12 02:57:03;;;;;;;20.33;10.93;;;;;;;;;;5038697;28;20469;-65
2022/12/12 02:59:33;;;;;;;20.50;10.93;;;;;;;;;;5038613;28;20486;-66
2022/12/12 03:02:13;;;;;;;15.87;9.67;;;;;;;;;;5037698;28;20472;-65
2022/12/12 03:07:49;;;;;;;17.07;8.70;;;;;;;;;;5027426;28;20482;-65
2022/12/12 03:10:24;;;;;;;18.70;10.13;;;;;;;;;;5038677;28;20442;-65
2022/12/12 03:12:59;;;;;;;13.27;8.77;;;;;;;;;;5038244;28;20794;-65
2022/12/12 03:15:31;;;;;;;20.37;10.70;;;;;;;;;;5038501;28;20462;-65
2022/12/12 03:18:09;;;;;;;19.00;11.53;;;;;;;;;;5037956;28;20922;-65
2022/12/12 03:20:38;;;;;;;21.53;11.07;;;;;;;;;;5038583;28;20474;-66
2022/12/12 03:23:08;;;;;;;23.03;10.83;;;;;;;;;;5038163;28;20450;-65
2022/12/12 03:25:40;;;;;;;24.50;11.13;;;;;;;;;;5038247;28;20442;-65
2022/12/12 03:28:10;;;;;;;18.40;9.10;;;;;;;;;;5038021;28;20438;-65
2022/12/12 03:30:40;;;;;;;21.43;10.63;;;;;;;;;;5038145;28;20537;-65
2022/12/12 03:33:15;;;;;;;17.63;10.10;;;;;;;;;;5037100;28;20460;-65
2022/12/12 03:35:46;;;;;;;21.73;10.37;;;;;;;;;;5037293;28;20469;-65
2022/12/12 03:38:15;;;;;;;18.03;8.93;;;;;;;;;;5038316;28;20442;-65
2022/12/12 03:40:45;;;;;;;19.03;9.90;;;;;;;;;;5037944;28;20446;-65
2022/12/12 03:43:15;;;;;;;20.17;11.17;;;;;;;;;;5037763;28;20478;-65
2022/12/12 03:45:45;;;;;;;19.53;11.53;;;;;;;;;;5037763;28;20857;-65
2022/12/12 03:48:16;;;;;;;19.33;11.30;;;;;;;;;;5037699;28;20540;-65
2022/12/12 03:50:46;;;;;;;16.13;9.63;;;;;;;;;;5038007;28;20211;-65
2022/12/12 03:53:17;;;;;;;18.80;10.43;;;;;;;;;;5037945;28;20545;-65
2022/12/12 03:55:47;;;;;;;18.67;9.93;;;;;;;;;;5037978;28;20208;-65
2022/12/12 03:58:19;;;;;;;16.33;9.23;;;;;;;;;;5038026;28;20207;-65
2022/12/12 04:00:48;;;;;;;21.73;10.25;;;;;;;;;;5037993;28;20450;-65
2022/12/12 04:03:21;;;;;;;18.83;9.67;;;;;;;;;;5037652;28;20211;-65
2022/12/12 04:14:22;;;;;;;15.90;9.17;;;;;;;;;;5037760;28;20470;-65
2022/12/12 04:16:59;;;;;;;16.60;10.83;;;;;;;;;;5037452;28;20475;-65
2022/12/12 04:25:07;;;;;;;20.33;11.03;;;;;;;;;;5036851;28;20230;-65
2022/12/12 04:27:37;;;;;;;19.13;10.93;;;;;;;;;;5037475;28;20938;-65
2022/12/12 04:30:06;;;;;;;16.80;9.88;;;;;;;;;;5024327;28;20624;-65
2022/12/12 04:32:36;;;;;;;19.98;11.27;;;;;;;;;;5037375;28;20207;-65
2022/12/12 04:35:07;;;;;;;22.25;12.43;;;;;;;;;;5032993;28;20302;-65
2022/12/12 04:37:38;;;;;;;23.67;10.83;;;;;;;;;;5033298;28;20283;-65
2022/12/12 04:40:08;;;;;;;17.10;8.83;;;;;;;;;;5031041;28;20435;-65
2022/12/12 04:42:38;;;;;;;19.37;11.67;;;;;;;;;;5033081;28;20883;-65
2022/12/12 04:45:10;;;;;;;26.17;13.10;;;;;;;;;;5032868;28;20495;-65
2022/12/12 04:47:39;;;;;;;26.83;12.30;;;;;;;;;;5035015;28;20482;-65
2022/12/12 04:50:10;;;;;;;19.83;10.27;;;;;;;;;;5032981;28;20449;-65
2022/12/12 04:52:39;;;;;;;17.13;9.43;;;;;;;;;;5035586;28;20286;-65
2022/12/12 04:55:09;;;;;;;18.10;10.18;;;;;;;;;;5035288;28;20495;-65
2022/12/12 04:57:41;;;;;;;22.03;9.87;;;;;;;;;;5036573;28;20546;-65
2022/12/12 05:00:10;;;;;;;17.67;9.00;;;;;;;;;;5038157;28;20858;-65
2022/12/12 05:02:40;;;;;;;22.20;10.38;;;;;;;;;;5040688;28;20246;-65
2022/12/12 05:05:11;;;;;;;22.17;11.03;;;;;;;;;;5040433;28;20219;-65
2022/12/12 05:07:41;;;;;;;16.48;8.82;;;;;;;;;;5040937;28;20482;-65
2022/12/12 05:10:11;;;;;;;21.13;11.05;;;;;;;;;;5040935;28;20242;-65
2022/12/12 05:12:40;;;;;;;21.30;10.70;;;;;;;;;;5040635;28;20239;-65
2022/12/12 05:15:09;;;;;;;21.57;12.03;;;;;;;;;;5034657;28;20224;-65
2022/12/12 05:17:40;;;;;;;21.50;11.05;;;;;;;;;;5031284;28;20493;-65
2022/12/12 05:20:10;;;;;;;19.67;9.48;;;;;;;;;;5033477;28;20715;-65
2022/12/12 05:22:38;;;;;;;18.10;10.50;;;;;;;;;;5038221;28;20242;-65
2022/12/12 05:25:07;;;;;;;20.00;9.63;;;;;;;;;;5034927;28;20259;-65
2022/12/12 05:27:35;;;;;;;20.93;11.37;;;;;;;;;;5033665;28;20650;-65
2022/12/12 05:30:03;;;;;;;22.43;11.27;;;;;;;;;;5039888;28;20893;-65
2022/12/12 05:32:31;;;;;;;20.90;11.05;;;;;;;;;;5039095;28;20434;-65
2022/12/12 05:34:59;;;;;;;26.98;10.98;;;;;;;;;;5036930;28;20219;-65
2022/12/12 05:37:29;;;;;;;23.70;10.60;;;;;;;;;;5037262;28;20625;-64
2022/12/12 05:39:57;;;;;;;18.80;10.63;;;;;;;;;;5038430;28;20204;-65
2022/12/12 05:42:25;;;;;;;23.30;11.30;;;;;;;;;;5038867;28;20703;-65
2022/12/12 05:44:53;;;;;;;23.50;12.07;;;;;;;;;;5039264;28;20238;-66
2022/12/12 05:47:21;;;;;;;23.42;13.20;;;;;;;;;;5038775;28;20234;-65
2022/12/12 05:49:49;;;;;;;19.77;10.40;;;;;;;;;;5039067;28;20207;-65
2022/12/12 05:52:17;;;;;;;29.48;11.18;;;;;;;;;;5034861;28;20536;-65
2022/12/12 05:54:47;;;;;;;28.45;11.43;;;;;;;;;;5039354;28;20255;-65
2022/12/12 05:57:16;;;;;;;22.15;11.52;;;;;;;;;;5039053;28;20196;-65
2022/12/12 05:59:44;;;;;;;22.75;11.88;;;;;;;;;;5039107;28;20203;-65
2022/12/12 06:02:12;;;;;;;20.60;11.63;;;;;;;;;;5039175;28;20219;-65
2022/12/12 06:04:41;;;;;;;17.73;9.82;;;;;;;;;;5039181;28;20298;-65
2022/12/12 06:07:09;;;;;;;18.53;11.70;;;;;;;;;;5040669;28;20214;-64
2022/12/12 06:09:37;;;;;;;20.05;12.20;;;;;;;;;;5037157;28;20437;-65
2022/12/12 06:12:07;;;;;;;20.33;11.35;;;;;;;;;;5038289;28;20210;-64
2022/12/12 06:14:35;;;;;;;25.23;11.90;;;;;;;;;;5039658;28;20227;-64
2022/12/12 06:17:03;;;;;;;19.67;10.20;;;;;;;;;;5039611;28;20438;-64
2022/12/12 06:19:31;;;;;;;25.02;12.57;;;;;;;;;;5039361;28;20496;-65
2022/12/12 06:21:59;;;;;;;18.73;10.85;;;;;;;;;;5030451;28;20242;-64
2022/12/12 06:24:27;;;;;;;23.60;11.83;;;;;;;;;;5031964;28;20253;-64
2022/12/12 06:26:55;;;;;;;18.53;11.57;;;;;;;;;;5034684;28;20438;-64
2022/12/12 06:29:24;;;;;;;19.13;12.00;;;;;;;;;;5032646;28;20478;-65
2022/12/12 06:31:53;;;;;;;24.05;12.13;;;;;;;;;;5035903;28;20501;-66
2022/12/12 06:34:21;;;;;;;19.27;11.15;;;;;;;;;;5031100;28;20310;-65
2022/12/12 06:36:49;;;;;;;25.40;13.53;;;;;;;;;;5030682;28;20641;-64
2022/12/12 06:39:17;;;;;;;25.65;12.38;;;;;;;;;;5030814;28;20443;-64
2022/12/12 06:41:45;;;;;;;22.92;11.68;;;;;;;;;;5030822;28;20256;-64
2022/12/12 06:44:13;;;;;;;24.60;12.27;;;;;;;;;;5031082;28;20223;-64
2022/12/12 06:46:43;;;;;;;21.70;11.30;;;;;;;;;;5033898;28;20583;-64
2022/12/12 06:49:11;;;;;;;24.17;11.70;;;;;;;;;;5033192;28;20478;-64
2022/12/12 06:51:42;;;;;;;22.20;12.27;;;;;;;;;;5029728;28;20205;-64
2022/12/12 06:54:11;;;;;;;19.95;12.32;;;;;;;;;;5034982;28;20216;-64
2022/12/12 06:56:39;;;;;;;19.48;11.65;;;;;;;;;;5028436;28;20234;-64
2022/12/12 06:59:15;;;;;;;22.20;10.88;;;;;;;;;;5029148;28;20223;-64
2022/12/12 07:01:44;;;;;;;22.75;12.10;;;;;;;;;;5027274;28;20200;-64
2022/12/12 07:04:14;;;;;;;27.65;14.75;;;;;;;;;;5034005;28;20231;-64
2022/12/12 07:06:42;;;;;;;27.05;13.07;;;;;;;;;;5026493;28;20200;-65
2022/12/12 07:09:10;;;;;;;25.83;13.80;;;;;;;;;;5026845;28;20220;-65
2022/12/12 07:11:39;;;;;;;22.25;11.98;;;;;;;;;;5038089;28;20726;-64
2022/12/12 07:14:07;;;;;;;21.92;13.07;;;;;;;;;;5038158;28;20247;-64
2022/12/12 07:16:35;;;;;;;22.10;12.77;;;;;;;;;;5037956;28;20206;-65
2022/12/12 07:19:05;;;;;;;33.67;12.20;;;;;;;;;;5037982;28;20295;-65
2022/12/12 07:21:32;;;;;;;23.57;12.20;;;;;;;;;;5037086;28;20550;-64
2022/12/12 07:24:00;;;;;;;30.00;14.50;;;;;;;;;;5037951;28;20510;-64
2022/12/12 07:26:28;;;;;;;26.87;14.53;;;;;;;;;;5038035;28;20791;-65
2022/12/12 07:28:56;;;;;;;30.33;15.87;;;;;;;;;;5037962;28;20493;-65
2022/12/12 07:31:25;;;;;;;25.07;13.77;;;;;;;;;;5037871;28;20478;-65
2022/12/12 07:33:54;;;;;;;25.20;12.40;;;;;;;;;;5037660;28;20539;-64
2022/12/12 07:36:23;;;;;;;24.17;13.93;;;;;;;;;;5038042;28;20481;-64
2022/12/12 07:38:52;;;;;;;25.87;12.77;;;;;;;;;;5037617;28;20542;-63
2022/12/12 07:41:20;;;;;;;28.13;14.27;;;;;;;;;;5037666;28;20506;-63
2022/12/12 07:43:49;;;;;;;29.40;15.80;;;;;;;;;;5037883;28;20470;-63
2022/12/12 07:46:20;;;;;;;25.50;13.50;;;;;;;;;;5037849;28;20446;-62
2022/12/12 07:48:48;;;;;;;25.40;12.53;;;;;;;;;;5036395;28;20569;-62
2022/12/12 07:51:16;;;;;;;25.97;12.13;;;;;;;;;;5038130;28;20443;-62
2022/12/12 07:53:45;;;;;;;25.80;12.27;;;;;;;;;;5031679;28;20469;-62
2022/12/12 07:56:15;;;;;;;26.53;13.17;;;;;;;;;;5032298;28;20476;-63
2022/12/12 07:58:43;;;;;;;24.47;12.37;;;;;;;;;;5032328;28;20441;-61
2022/12/12 08:01:12;;;;;;;30.90;14.00;;;;;;;;;;5032249;28;20485;-62
2022/12/12 08:03:42;;;;;;;26.17;12.70;;;;;;;;;;5034128;28;20482;-64
2022/12/12 08:06:10;;;;;;;23.83;11.97;;;;;;;;;;5033910;28;20476;-64
2022/12/12 08:08:38;;;;;;;20.23;11.73;;;;;;;;;;5027464;28;20517;-64
2022/12/12 08:11:08;;;;;;;24.03;11.57;;;;;;;;;;5037301;28;20450;-64
2022/12/12 08:13:38;;;;;;;21.00;11.00;;;;;;;;;;5033031;28;20520;-63
2022/12/12 08:16:07;;;;;;;26.27;13.50;;;;;;;;;;5037199;28;20443;-63
2022/12/12 08:18:35;;;;;;;22.60;13.00;;;;;;;;;;5037135;28;20438;-64
2022/12/12 08:21:06;;;;;;;24.40;12.87;;;;;;;;;;5037671;28;20474;-64
2022/12/12 08:23:38;;;;;;;23.10;11.63;;;;;;;;;;5025116;28;20516;-64
2022/12/12 08:26:08;;;;;;;24.93;14.23;;;;;;;;;;5037479;28;20504;-64
2022/12/12 08:28:38;;;;;;;26.73;16.40;;;;;;;;;;5038145;28;20481;-64
2022/12/12 08:31:06;;;;;;;27.50;13.53;;;;;;;;;;5036552;28;20546;-63
2022/12/12 08:33:34;;;;;;;27.90;13.93;;;;;;;;;;5037298;28;20493;-63
2022/12/12 08:36:10;;;;;;;25.60;13.83;;;;;;;;;;5036415;28;20474;-64
2022/12/12 08:38:38;;;;;;;27.07;12.00;;;;;;;;;;5036026;28;20438;-63
2022/12/12 08:41:06;;;;;;;20.70;12.53;;;;;;;;;;5029211;28;20489;-64
2022/12/12 08:43:34;;;;;;;23.10;13.27;;;;;;;;;;5031162;28;20488;-63
2022/12/12 08:46:04;;;;;;;24.20;13.07;;;;;;;;;;5031884;28;20443;-63
2022/12/12 08:48:32;;;;;;;27.87;13.73;;;;;;;;;;5032981;28;20453;-63
2022/12/12 08:51:00;;;;;;;26.03;13.67;;;;;;;;;;5031929;28;20435;-63
2022/12/12 08:53:29;;;;;;;25.03;12.43;;;;;;;;;;5028548;28;20474;-63
2022/12/12 08:55:57;;;;;;;21.43;11.00;;;;;;;;;;5036441;28;20442;-63
2022/12/12 08:58:25;;;;;;;24.30;12.13;;;;;;;;;;5037229;28;20450;-63
2022/12/12 09:00:53;;;;;;;23.83;11.93;;;;;;;;;;5036276;28;20518;-64
2022/12/12 09:03:22;;;;;;;30.77;13.07;;;;;;;;;;5035341;28;20461;-63
2022/12/12 09:05:56;;;;;;;23.10;13.60;;;;;;;;;;5035676;28;20466;-64
2022/12/12 09:08:24;;;;;;;24.80;11.70;;;;;;;;;;5036980;28;20442;-64
2022/12/12 09:10:52;;;;;;;25.50;12.33;;;;;;;;;;5036983;28;20492;-64
2022/12/12 09:13:20;;;;;;;21.70;12.27;;;;;;;;;;5036493;28;20961;-64
2022/12/12 09:15:50;;;;;;;27.90;13.50;;;;;;;;;;5037013;28;20457;-63
2022/12/12 09:18:18;;;;;;;23.60;12.73;;;;;;;;;;5036548;28;20445;-64
2022/12/12 09:20:49;;;;;;;20.77;12.37;;;;;;;;;;5036804;28;20808;-64
2022/12/12 09:23:18;;;;;;;27.03;12.40;;;;;;;;;;5036631;28;20521;-64
2022/12/12 09:25:46;;;;;;;23.57;11.70;;;;;;;;;;5037994;28;20485;-63
2022/12/12 09:28:14;;;;;;;21.48;13.45;;;;;;;;;;5040132;28;20478;-64
2022/12/12 09:30:43;;;;;;;20.90;11.27;;;;;;;;;;5040357;28;20228;-64
2022/12/12 09:33:12;;;;;;;27.67;14.23;;;;;;;;;;5038076;28;20470;-63
2022/12/12 09:35:40;;;;;;;31.17;14.33;;;;;;;;;;5031280;28;20443;-64
2022/12/12 09:38:09;;;;;;;25.43;12.53;;;;;;;;;;5032088;28;20526;-63
2022/12/12 09:40:46;;;;;;;22.73;12.23;;;;;;;;;;5032592;28;20432;-63
2022/12/12 09:43:15;;;;;;;22.37;12.33;;;;;;;;;;5039870;28;20438;-63
2022/12/12 09:45:44;;;;;;;21.37;11.33;;;;;;;;;;5040277;28;20457;-63
2022/12/12 09:48:16;;;;;;;21.10;12.60;;;;;;;;;;5039135;28;20454;-62
2022/12/12 09:50:46;;;;;;;24.57;12.17;;;;;;;;;;5034791;28;20481;-62
2022/12/12 09:53:16;;;;;;;27.90;13.70;;;;;;;;;;5033284;28;20434;-63
2022/12/12 09:55:47;;;;;;;30.10;14.47;;;;;;;;;;5033136;28;20443;-63
2022/12/12 09:58:18;;;;;;;30.30;15.37;;;;;;;;;;5033182;28;20441;-63
2022/12/12 10:00:48;;;;;;;25.97;13.50;;;;;;;;;;5039517;28;20454;-62
2022/12/12 10:03:22;;;;;;;26.20;13.23;;;;;;;;;;5037207;28;20449;-62
2022/12/12 10:05:54;;;;;;;29.17;14.33;;;;;;;;;;5034709;28;20434;-62
2022/12/12 10:08:47;;;;;;;25.47;12.57;;;;;;;;;;5036652;28;20504;-62
2022/12/12 10:14:10;;;;;;;25.30;12.77;;;;;;;;;;5033059;28;20546;-62
2022/12/12 10:16:40;;;;;;;25.50;12.90;;;;;;;;;;5034217;28;20435;-62
2022/12/12 10:19:10;;;;;;;25.17;14.07;;;;;;;;;;5034691;28;20443;-62
2022/12/12 10:21:39;;;;;;;25.27;14.93;;;;;;;;;;5035029;28;20513;-62
2022/12/12 10:24:14;;;;;;;23.03;13.13;;;;;;;;;;5030509;28;20500;-62
2022/12/12 10:26:42;;;;;;;29.27;13.93;;;;;;;;;;5039015;28;20532;-63
2022/12/12 10:29:12;;;;;;;22.37;13.60;;;;;;;;;;5039446;28;20478;-63
2022/12/12 10:31:44;;;;;;;28.57;14.37;;;;;;;;;;5039212;28;21033;-63
2022/12/12 10:34:17;;;;;;;31.47;14.20;;;;;;;;;;5038527;28;20462;-63
2022/12/12 10:36:54;;;;;;;31.87;15.83;;;;;;;;;;5035172;28;20884;-63
2022/12/12 10:39:28;;;;;;;28.13;13.90;;;;;;;;;;5032371;28;20447;-62
2022/12/12 10:42:00;;;;;;;25.37;13.80;;;;;;;;;;5036379;28;20466;-62
2022/12/12 10:44:38;;;;;;;22.93;12.80;;;;;;;;;;5037789;28;20466;-63
2022/12/12 10:47:13;;;;;;;28.63;14.30;;;;;;;;;;5035913;28;20450;-63
2022/12/12 10:49:42;;;;;;;26.77;14.53;;;;;;;;;;5038626;28;20783;-63
2022/12/12 10:52:14;;;;;;;23.37;13.33;;;;;;;;;;5038750;28;20790;-63
2022/12/12 10:54:45;;;;;;;25.87;14.37;;;;;;;;;;5038628;28;20546;-63
2022/12/12 10:57:15;;;;;;;27.50;13.47;;;;;;;;;;5036662;28;20454;-62
2022/12/12 10:59:48;;;;;;;25.73;14.30;;;;;;;;;;5038886;28;20431;-63
2022/12/12 11:02:25;;;;;;;27.43;14.63;;;;;;;;;;5039009;28;20453;-63
2022/12/12 11:05:08;;;;;;;27.13;12.67;;;;;;;;;;5036311;28;20485;-63
2022/12/12 11:07:37;;;;;;;27.60;14.47;;;;;;;;;;5033807;28;20469;-62
2022/12/12 11:10:20;;;;;;;23.93;13.23;;;;;;;;;;5037676;28;20836;-62
2022/12/12 11:12:54;;;;;;;25.80;13.20;;;;;;;;;;5030751;28;20906;-63
2022/12/12 11:15:27;;;;;;;27.70;13.90;;;;;;;;;;5029643;28;20488;-61
2022/12/12 11:17:56;;;;;;;23.10;12.80;;;;;;;;;;5033020;28;20444;-63
2022/12/12 11:20:32;;;;;;;28.50;13.67;;;;;;;;;;5031006;28;20873;-63
2022/12/12 11:23:00;;;;;;;25.77;13.87;;;;;;;;;;5028920;28;20874;-63
2022/12/12 11:25:30;;;;;;;24.43;13.17;;;;;;;;;;5029643;28;20566;-65
2022/12/12 11:27:59;;;;;;;24.50;13.13;;;;;;;;;;5031651;28;20470;-63
2022/12/12 11:30:34;;;;;;;28.47;13.50;;;;;;;;;;5032893;28;20473;-63
2022/12/12 11:33:03;;;;;;;27.23;13.03;;;;;;;;;;5035012;28;20450;-63
2022/12/12 11:35:34;;;;;;;23.93;12.10;;;;;;;;;;5029668;28;20493;-63
2022/12/12 11:38:03;;;;;;;27.73;15.20;;;;;;;;;;5033262;28;20482;-62
2022/12/12 11:40:33;;;;;;;28.93;14.93;;;;;;;;;;5031495;28;20542;-63
2022/12/12 11:43:18;;;;;;;25.03;13.33;;;;;;;;;;5031827;28;20871;-63
2022/12/12 11:45:57;;;;;;;25.97;13.93;;;;;;;;;;5035717;28;20442;-64
2022/12/12 11:48:43;;;;;;;23.27;13.67;;;;;;;;;;5036941;28;20458;-62
2022/12/12 11:51:11;;;;;;;30.03;15.60;;;;;;;;;;5024813;28;20482;-62
2022/12/12 11:53:40;;;;;;;28.10;14.93;;;;;;;;;;5037886;28;20466;-62
2022/12/12 11:56:16;;;;;;;24.27;14.47;;;;;;;;;;5037367;28;20442;-65
2022/12/12 11:58:46;;;;;;;26.33;14.37;;;;;;;;;;5037619;28;20876;-65
2022/12/12 12:01:19;;;;;;;29.17;14.70;;;;;;;;;;5036753;28;20458;-65
2022/12/12 12:03:54;;;;;;;26.93;13.17;;;;;;;;;;5037074;28;20484;-65
2022/12/12 12:06:29;;;;;;;26.73;13.03;;;;;;;;;;5037659;28;20445;-65
2022/12/12 12:09:06;;;;;;;23.77;11.13;;;;;;;;;;5037011;28;20469;-65
2022/12/12 12:11:39;;;;;;;25.43;13.63;;;;;;;;;;5037527;28;20485;-66
2022/12/12 12:14:14;;;;;;;29.20;14.00;;;;;;;;;;5037489;28;20476;-65
2022/12/12 12:16:45;;;;;;;26.20;14.03;;;;;;;;;;5037495;28;20446;-66
2022/12/12 12:19:17;;;;;;;27.97;13.53;;;;;;;;;;5037427;28;20450;-67
2022/12/12 12:21:52;;;;;;;38.77;14.53;;;;;;;;;;5037780;28;20541;-65
2022/12/12 12:24:36;;;;;;;26.60;13.93;;;;;;;;;;5037476;28;20466;-65
2022/12/12 12:27:11;;;;;;;28.60;14.30;;;;;;;;;;5036444;28;20589;-65
2022/12/12 12:29:48;;;;;;;32.30;14.67;;;;;;;;;;5037208;28;20500;-65
2022/12/12 12:32:21;;;;;;;29.07;14.20;;;;;;;;;;5035845;28;20580;-65
2022/12/12 12:34:56;;;;;;;28.53;14.53;;;;;;;;;;5037215;28;20552;-65
2022/12/12 12:37:31;;;;;;;27.93;13.83;;;;;;;;;;5037197;28;20566;-65
2022/12/12 12:40:04;;;;;;;29.60;15.10;;;;;;;;;;5037129;28;20434;-65
2022/12/12 12:42:40;;;;;;;32.37;14.47;;;;;;;;;;5036867;28;20474;-65
2022/12/12 12:45:18;;;;;;;28.83;14.40;;;;;;;;;;5037354;28;20470;-65
2022/12/12 12:47:51;;;;;;;26.13;14.13;;;;;;;;;;5037050;28;20486;-65
2022/12/12 12:50:21;;;;;;;25.07;14.03;;;;;;;;;;5036969;28;20442;-65
2022/12/12 12:52:53;;;;;;;26.57;13.90;;;;;;;;;;5037247;28;20518;-65
2022/12/12 12:55:23;;;;;;;23.83;13.40;;;;;;;;;;5032228;28;20481;-65
2022/12/12 12:57:53;;;;;;;24.40;13.27;;;;;;;;;;5037306;28;20461;-65
2022/12/12 13:00:22;;;;;;;25.73;13.17;;;;;;;;;;5037711;28;20489;-64
2022/12/12 13:02:54;;;;;;;35.63;15.47;;;;;;;;;;5040653;28;20504;-65
2022/12/12 13:05:23;;;;;;;23.73;13.27;;;;;;;;;;5040322;28;20473;-66
2022/12/12 13:07:54;;;;;;;30.37;15.13;;;;;;;;;;5040941;28;20453;-65
2022/12/12 13:10:24;;;;;;;32.73;14.27;;;;;;;;;;5040358;28;20441;-65
2022/12/12 13:12:56;;;;;;;22.70;13.43;;;;;;;;;;5040727;28;20486;-65
2022/12/12 13:15:25;;;;;;;28.83;15.43;;;;;;;;;;5040543;28;20934;-65
2022/12/12 13:17:57;;;;;;;27.70;13.50;;;;;;;;;;5040260;28;20438;-65
2022/12/12 13:20:26;;;;;;;28.83;15.37;;;;;;;;;;5040371;28;20450;-65
2022/12/12 13:23:06;;;;;;;28.13;15.47;;;;;;;;;;5039464;28;20450;-65
2022/12/12 13:25:38;;;;;;;28.10;14.93;;;;;;;;;;5040713;28;20478;-65
2022/12/12 13:28:11;;;;;;;30.13;14.17;;;;;;;;;;5040396;28;20450;-65
2022/12/12 13:30:56;;;;;;;31.63;13.70;;;;;;;;;;5040379;28;20474;-65
2022/12/12 13:33:32;;;;;;;26.57;13.73;;;;;;;;;;5040171;28;20508;-64
2022/12/12 13:36:06;;;;;;;29.73;15.23;;;;;;;;;;5040550;28;20446;-65
2022/12/12 13:38:34;;;;;;;24.07;14.57;;;;;;;;;;5040266;28;20533;-65
2022/12/12 13:41:05;;;;;;;26.43;13.57;;;;;;;;;;5040091;28;20482;-65
2022/12/12 13:43:42;;;;;;;26.23;13.23;;;;;;;;;;5040108;28;20473;-64
2022/12/12 13:46:29;;;;;;;24.70;14.33;;;;;;;;;;5039748;28;20813;-65
2022/12/12 13:48:58;;;;;;;30.17;13.63;;;;;;;;;;5035950;28;20449;-65
2022/12/12 13:51:34;;;;;;;28.03;14.10;;;;;;;;;;5038898;28;20482;-65
2022/12/12 13:54:35;;;;;;;26.23;13.13;;;;;;;;;;5039466;28;20822;-65
2022/12/12 13:57:10;;;;;;;27.47;14.83;;;;;;;;;;4978673;28;20991;-65
2022/12/12 14:00:11;;;;;;;27.70;14.03;;;;;;;;;;4978834;28;20543;-65
2022/12/12 14:02:44;;;;;;;23.07;13.23;;;;;;;;;;4953933;28;20436;-64
2022/12/12 14:05:13;;;;;;;24.93;12.63;;;;;;;;;;4978602;28;20551;-65
2022/12/12 14:07:47;;;;;;;28.73;14.50;;;;;;;;;;5008963;28;20805;-65
2022/12/12 14:10:18;;;;;;;27.50;12.50;;;;;;;;;;5039618;28;20450;-64
2022/12/12 14:12:47;;;;;;;26.73;13.67;;;;;;;;;;5038334;28;20574;-64
2022/12/12 14:15:19;;;;;;;26.03;13.80;;;;;;;;;;5039629;28;20462;-65
2022/12/12 14:17:53;;;;;;;28.23;14.57;;;;;;;;;;5039100;28;20807;-65
2022/12/12 14:20:26;;;;;;;21.43;12.37;;;;;;;;;;5039606;28;20453;-65
2022/12/12 14:23:10;;;;;;;25.60;14.10;;;;;;;;;;5038482;28;20893;-65
2022/12/12 14:25:38;;;;;;;31.33;15.10;;;;;;;;;;5039646;28;20442;-65
2022/12/12 14:28:18;;;;;;;24.70;13.23;;;;;;;;;;5039112;28;20453;-64
2022/12/12 14:30:48;;;;;;;30.27;14.47;;;;;;;;;;5039263;28;21025;-65
2022/12/12 14:33:34;;;;;;;23.07;13.33;;;;;;;;;;5038642;28;20482;-65
2022/12/12 14:36:08;;;;;;;27.60;15.27;;;;;;;;;;5039180;28;20474;-65
2022/12/12 14:38:40;;;;;;;25.17;14.23;;;;;;;;;;5039393;28;20537;-65
2022/12/12 14:41:10;;;;;;;30.90;13.83;;;;;;;;;;5038730;28;20505;-65
2022/12/12 14:43:43;;;;;;;22.93;13.83;;;;;;;;;;5039215;28;20507;-65
2022/12/12 14:46:14;;;;;;;28.97;13.63;;;;;;;;;;5039050;28;20466;-65
2022/12/12 14:48:42;;;;;;;29.97;14.23;;;;;;;;;;5038660;28;20468;-65
2022/12/12 14:51:16;;;;;;;22.30;12.10;;;;;;;;;;5037917;28;20893;-65
2022/12/12 14:53:46;;;;;;;27.90;13.87;;;;;;;;;;5038719;28;20490;-65
2022/12/12 14:56:16;;;;;;;23.43;13.37;;;;;;;;;;5038811;28;20525;-65
2022/12/12 14:58:45;;;;;;;24.27;13.73;;;;;;;;;;5038634;28;20942;-65
2022/12/12 15:01:15;;;;;;;25.27;14.23;;;;;;;;;;5032462;28;20523;-65